sensor_id;sensor_type;location;lat;lon;timestamp;pressure;altitude;pressure_sealevel;temperature;humidity
78890;BME280;68279;48.964;14.502;2024-01-30T00:01:42;98598.94;;;-3.21;100.00
78890;BME280;68279;48.964;14.502;2024-01-30T00:04:08;98599.50;;;-3.35;100.00
78890;BME280;68279;48.964;14.502;2024-01-30T00:06:33;98601.09;;;-3.42;100.00
78890;BME280;68279;48.964;14.502;2024-01-30T00:08:59;98596.56;;;-3.32;100.00
78890;BME280;68279;48.964;14.502;2024-01-30T00:11:25;98593.91;;;-3.40;100.00
78890;BME280;68279;48.964;14.502;2024-01-30T00:13:54;98589.28;;;-3.46;100.00
78890;BME280;68279;48.964;14.502;2024-01-30T00:16:22;98604.72;;;-3.79;100.00
78890;BME280;68279;48.964;14.502;2024-01-30T00:18:51;98599.41;;;-3.69;100.00
78890;BME280;68279;48.964;14.502;2024-01-30T00:21:17;98593.88;;;-3.66;100.00
78890;BME280;68279;48.964;14.502;2024-01-30T00:23:43;98591.34;;;-3.76;100.00
78890;BME280;68279;48.964;14.502;2024-01-30T00:26:08;98588.25;;;-3.53;100.00
78890;BME280;68279;48.964;14.502;2024-01-30T00:28:34;98601.78;;;-3.58;100.00
78890;BME280;68279;48.964;14.502;2024-01-30T00:31:00;98595.38;;;-3.37;100.00
78890;BME280;68279;48.964;14.502;2024-01-30T00:33:26;98596.06;;;-3.35;100.00
78890;BME280;68279;48.964;14.502;2024-01-30T00:35:52;98601.34;;;-3.71;100.00
78890;BME280;68279;48.964;14.502;2024-01-30T00:38:18;98590.13;;;-3.81;100.00
78890;BME280;68279;48.964;14.502;2024-01-30T00:40:43;98590.06;;;-3.89;100.00
78890;BME280;68279;48.964;14.502;2024-01-30T00:43:09;98592.09;;;-4.01;100.00
78890;BME280;68279;48.964;14.502;2024-01-30T00:45:35;98585.22;;;-4.02;100.00
78890;BME280;68279;48.964;14.502;2024-01-30T00:48:00;98587.47;;;-3.89;100.00
78890;BME280;68279;48.964;14.502;2024-01-30T00:50:26;98585.22;;;-3.66;100.00
78890;BME280;68279;48.964;14.502;2024-01-30T00:52:51;98589.03;;;-3.61;100.00
78890;BME280;68279;48.964;14.502;2024-01-30T00:55:17;98587.97;;;-3.24;100.00
78890;BME280;68279;48.964;14.502;2024-01-30T00:57:43;98594.53;;;-3.64;100.00
78890;BME280;68279;48.964;14.502;2024-01-30T01:00:08;98590.97;;;-3.99;100.00
78890;BME280;68279;48.964;14.502;2024-01-30T01:02:35;98589.31;;;-4.00;100.00
78890;BME280;68279;48.964;14.502;2024-01-30T01:05:01;98588.41;;;-4.26;100.00
78890;BME280;68279;48.964;14.502;2024-01-30T01:07:27;98580.88;;;-4.29;100.00
78890;BME280;68279;48.964;14.502;2024-01-30T01:09:53;98582.00;;;-4.32;100.00
78890;BME280;68279;48.964;14.502;2024-01-30T01:12:18;98585.53;;;-4.23;100.00
78890;BME280;68279;48.964;14.502;2024-01-30T01:14:44;98573.47;;;-4.34;100.00
78890;BME280;68279;48.964;14.502;2024-01-30T01:17:09;98584.22;;;-4.37;100.00
78890;BME280;68279;48.964;14.502;2024-01-30T01:19:35;98579.50;;;-4.23;100.00
78890;BME280;68279;48.964;14.502;2024-01-30T01:22:01;98577.31;;;-4.10;100.00
78890;BME280;68279;48.964;14.502;2024-01-30T01:24:26;98576.81;;;-4.14;100.00
78890;BME280;68279;48.964;14.502;2024-01-30T01:26:52;98579.84;;;-4.18;100.00
78890;BME280;68279;48.964;14.502;2024-01-30T01:29:17;98578.13;;;-4.10;100.00
78890;BME280;68279;48.964;14.502;2024-01-30T01:31:43;98581.81;;;-4.03;100.00
78890;BME280;68279;48.964;14.502;2024-01-30T01:34:12;98585.16;;;-4.10;100.00
78890;BME280;68279;48.964;14.502;2024-01-30T01:36:38;98579.19;;;-4.20;100.00
78890;BME280;68279;48.964;14.502;2024-01-30T01:39:04;98580.81;;;-4.37;100.00
78890;BME280;68279;48.964;14.502;2024-01-30T01:41:33;98578.13;;;-4.73;100.00
78890;BME280;68279;48.964;14.502;2024-01-30T01:43:59;98579.75;;;-4.99;100.00
78890;BME280;68279;48.964;14.502;2024-01-30T01:46:31;98586.03;;;-5.29;100.00
78890;BME280;68279;48.964;14.502;2024-01-30T01:48:58;98584.84;;;-5.45;100.00
78890;BME280;68279;48.964;14.502;2024-01-30T01:51:27;98587.59;;;-5.65;100.00
78890;BME280;68279;48.964;14.502;2024-01-30T01:53:57;98588.84;;;-5.70;100.00
78890;BME280;68279;48.964;14.502;2024-01-30T01:56:23;98579.78;;;-5.65;100.00
78890;BME280;68279;48.964;14.502;2024-01-30T01:58:49;98591.47;;;-5.79;100.00
78890;BME280;68279;48.964;14.502;2024-01-30T02:01:16;98589.38;;;-5.76;100.00
78890;BME280;68279;48.964;14.502;2024-01-30T02:03:44;98588.72;;;-5.87;100.00
78890;BME280;68279;48.964;14.502;2024-01-30T02:06:11;98584.75;;;-5.82;100.00
78890;BME280;68279;48.964;14.502;2024-01-30T02:08:37;98586.78;;;-5.85;100.00
78890;BME280;68279;48.964;14.502;2024-01-30T02:11:03;98580.47;;;-5.54;100.00
78890;BME280;68279;48.964;14.502;2024-01-30T02:13:29;98582.91;;;-5.43;100.00
78890;BME280;68279;48.964;14.502;2024-01-30T02:15:54;98581.56;;;-5.47;100.00
78890;BME280;68279;48.964;14.502;2024-01-30T02:18:20;98588.00;;;-5.51;100.00
78890;BME280;68279;48.964;14.502;2024-01-30T02:20:50;98595.28;;;-5.54;100.00
78890;BME280;68279;48.964;14.502;2024-01-30T02:23:19;98588.69;;;-5.68;100.00
78890;BME280;68279;48.964;14.502;2024-01-30T02:25:45;98587.06;;;-5.69;100.00
78890;BME280;68279;48.964;14.502;2024-01-30T02:28:12;98584.59;;;-5.61;100.00
78890;BME280;68279;48.964;14.502;2024-01-30T02:30:42;98579.19;;;-5.40;100.00
78890;BME280;68279;48.964;14.502;2024-01-30T02:33:08;98579.88;;;-5.38;100.00
78890;BME280;68279;48.964;14.502;2024-01-30T02:35:33;98581.06;;;-5.23;100.00
78890;BME280;68279;48.964;14.502;2024-01-30T02:37:59;98583.38;;;-4.82;100.00
78890;BME280;68279;48.964;14.502;2024-01-30T02:40:25;98589.34;;;-4.63;100.00
78890;BME280;68279;48.964;14.502;2024-01-30T02:42:51;98577.59;;;-4.49;100.00
78890;BME280;68279;48.964;14.502;2024-01-30T02:45:17;98580.81;;;-4.37;100.00
78890;BME280;68279;48.964;14.502;2024-01-30T02:47:42;98584.41;;;-4.20;100.00
78890;BME280;68279;48.964;14.502;2024-01-30T02:50:08;98583.75;;;-4.05;100.00
78890;BME280;68279;48.964;14.502;2024-01-30T02:52:34;98584.72;;;-3.88;100.00
78890;BME280;68279;48.964;14.502;2024-01-30T02:55:01;98582.75;;;-3.68;100.00
78890;BME280;68279;48.964;14.502;2024-01-30T02:57:26;98576.72;;;-3.43;100.00
78890;BME280;68279;48.964;14.502;2024-01-30T02:59:52;98587.47;;;-3.20;100.00
78890;BME280;68279;48.964;14.502;2024-01-30T03:02:17;98579.19;;;-2.81;100.00
78890;BME280;68279;48.964;14.502;2024-01-30T03:04:43;98583.78;;;-2.75;100.00
78890;BME280;68279;48.964;14.502;2024-01-30T03:07:08;98585.47;;;-2.66;100.00
78890;BME280;68279;48.964;14.502;2024-01-30T03:09:34;98586.28;;;-2.65;100.00
78890;BME280;68279;48.964;14.502;2024-01-30T03:12:00;98579.28;;;-2.65;100.00
78890;BME280;68279;48.964;14.502;2024-01-30T03:14:26;98579.41;;;-2.66;100.00
78890;BME280;68279;48.964;14.502;2024-01-30T03:16:51;98580.13;;;-2.56;100.00
78890;BME280;68279;48.964;14.502;2024-01-30T03:19:17;98582.59;;;-2.46;100.00
78890;BME280;68279;48.964;14.502;2024-01-30T03:21:44;98578.19;;;-2.46;100.00
78890;BME280;68279;48.964;14.502;2024-01-30T03:24:09;98578.19;;;-2.46;100.00
78890;BME280;68279;48.964;14.502;2024-01-30T03:26:35;98576.28;;;-2.28;100.00
78890;BME280;68279;48.964;14.502;2024-01-30T03:29:00;98581.31;;;-2.34;100.00
78890;BME280;68279;48.964;14.502;2024-01-30T03:31:27;98579.47;;;-2.50;100.00
78890;BME280;68279;48.964;14.502;2024-01-30T03:33:53;98581.25;;;-2.59;100.00
78890;BME280;68279;48.964;14.502;2024-01-30T03:36:19;98580.75;;;-2.62;100.00
78890;BME280;68279;48.964;14.502;2024-01-30T03:38:45;98580.91;;;-2.64;100.00
78890;BME280;68279;48.964;14.502;2024-01-30T03:41:10;98580.78;;;-2.54;100.00
78890;BME280;68279;48.964;14.502;2024-01-30T03:43:36;98584.53;;;-2.48;100.00
78890;BME280;68279;48.964;14.502;2024-01-30T03:46:02;98582.44;;;-2.45;100.00
78890;BME280;68279;48.964;14.502;2024-01-30T03:48:29;98582.75;;;-2.48;100.00
78890;BME280;68279;48.964;14.502;2024-01-30T03:50:55;98579.53;;;-2.34;100.00
78890;BME280;68279;48.964;14.502;2024-01-30T03:53:21;98580.38;;;-2.17;100.00
78890;BME280;68279;48.964;14.502;2024-01-30T03:55:47;98575.16;;;-2.01;100.00
78890;BME280;68279;48.964;14.502;2024-01-30T03:58:12;98576.31;;;-1.95;100.00
78890;BME280;68279;48.964;14.502;2024-01-30T04:00:37;98573.03;;;-1.89;100.00
78890;BME280;68279;48.964;14.502;2024-01-30T04:03:03;98575.66;;;-1.89;100.00
78890;BME280;68279;48.964;14.502;2024-01-30T04:05:29;98578.94;;;-1.87;100.00
78890;BME280;68279;48.964;14.502;2024-01-30T04:07:55;98577.81;;;-1.84;100.00
78890;BME280;68279;48.964;14.502;2024-01-30T04:10:20;98580.25;;;-1.83;100.00
78890;BME280;68279;48.964;14.502;2024-01-30T04:12:47;98580.91;;;-1.81;100.00
78890;BME280;68279;48.964;14.502;2024-01-30T04:15:13;98574.50;;;-1.86;100.00
78890;BME280;68279;48.964;14.502;2024-01-30T04:17:40;98583.19;;;-1.86;100.00
78890;BME280;68279;48.964;14.502;2024-01-30T04:20:06;98577.66;;;-1.83;100.00
78890;BME280;68279;48.964;14.502;2024-01-30T04:22:32;98582.06;;;-1.83;100.00
78890;BME280;68279;48.964;14.502;2024-01-30T04:24:57;98582.25;;;-1.77;100.00
78890;BME280;68279;48.964;14.502;2024-01-30T04:27:23;98579.94;;;-1.80;100.00
78890;BME280;68279;48.964;14.502;2024-01-30T04:29:49;98579.94;;;-1.80;100.00
78890;BME280;68279;48.964;14.502;2024-01-30T04:32:14;98583.88;;;-1.76;100.00
78890;BME280;68279;48.964;14.502;2024-01-30T04:34:41;98583.06;;;-1.76;100.00
78890;BME280;68279;48.964;14.502;2024-01-30T04:37:06;98585.50;;;-1.75;100.00
78890;BME280;68279;48.964;14.502;2024-01-30T04:39:36;98582.38;;;-1.70;100.00
78890;BME280;68279;48.964;14.502;2024-01-30T04:42:02;98582.06;;;-1.67;100.00
78890;BME280;68279;48.964;14.502;2024-01-30T04:44:28;98584.34;;;-1.72;100.00
78890;BME280;68279;48.964;14.502;2024-01-30T04:46:53;98584.19;;;-1.71;100.00
78890;BME280;68279;48.964;14.502;2024-01-30T04:49:19;98591.41;;;-1.73;100.00
78890;BME280;68279;48.964;14.502;2024-01-30T04:51:45;98593.53;;;-1.68;100.00
78890;BME280;68279;48.964;14.502;2024-01-30T04:54:11;98587.31;;;-1.67;100.00
78890;BME280;68279;48.964;14.502;2024-01-30T04:56:36;98586.50;;;-1.67;100.00
78890;BME280;68279;48.964;14.502;2024-01-30T04:59:02;98580.59;;;-1.69;100.00
78890;BME280;68279;48.964;14.502;2024-01-30T05:01:30;98583.19;;;-1.69;100.00
78890;BME280;68279;48.964;14.502;2024-01-30T05:03:55;98586.00;;;-1.71;100.00
78890;BME280;68279;48.964;14.502;2024-01-30T05:06:25;98583.38;;;-1.71;100.00
78890;BME280;68279;48.964;14.502;2024-01-30T05:08:51;98580.75;;;-1.71;100.00
78890;BME280;68279;48.964;14.502;2024-01-30T05:11:17;98586.50;;;-1.67;100.00
78890;BME280;68279;48.964;14.502;2024-01-30T05:13:43;98587.16;;;-1.65;100.00
78890;BME280;68279;48.964;14.502;2024-01-30T05:16:09;98581.56;;;-1.71;100.00
78890;BME280;68279;48.964;14.502;2024-01-30T05:18:34;98593.03;;;-1.72;100.00
78890;BME280;68279;48.964;14.502;2024-01-30T05:21:00;98583.38;;;-1.71;100.00
78890;BME280;68279;48.964;14.502;2024-01-30T05:23:26;98584.84;;;-1.68;100.00
78890;BME280;68279;48.964;14.502;2024-01-30T05:25:51;98591.41;;;-1.73;100.00
78890;BME280;68279;48.964;14.502;2024-01-30T05:28:17;98597.81;;;-1.67;100.00
78890;BME280;68279;48.964;14.502;2024-01-30T05:30:42;98593.53;;;-1.68;100.00
78890;BME280;68279;48.964;14.502;2024-01-30T05:33:08;98594.50;;;-1.69;100.00
78890;BME280;68279;48.964;14.502;2024-01-30T05:35:35;98596.16;;;-1.68;100.00
78890;BME280;68279;48.964;14.502;2024-01-30T05:38:00;98592.56;;;-1.67;100.00
78890;BME280;68279;48.964;14.502;2024-01-30T05:40:26;98594.22;;;-1.66;100.00
78890;BME280;68279;48.964;14.502;2024-01-30T05:42:52;98600.91;;;-1.63;100.00
78890;BME280;68279;48.964;14.502;2024-01-30T05:45:18;98602.91;;;-1.65;100.00
78890;BME280;68279;48.964;14.502;2024-01-30T05:47:43;98600.91;;;-1.72;100.00
78890;BME280;68279;48.964;14.502;2024-01-30T05:50:09;98597.00;;;-1.67;100.00
78890;BME280;68279;48.964;14.502;2024-01-30T05:52:35;98600.75;;;-1.70;100.00
78890;BME280;68279;48.964;14.502;2024-01-30T05:55:00;98600.91;;;-1.72;100.00
78890;BME280;68279;48.964;14.502;2024-01-30T05:57:26;98598.13;;;-1.70;100.00
78890;BME280;68279;48.964;14.502;2024-01-30T05:59:51;98597.81;;;-1.75;100.00
78890;BME280;68279;48.964;14.502;2024-01-30T06:02:17;98602.88;;;-1.74;100.00
78890;BME280;68279;48.964;14.502;2024-01-30T06:04:43;98603.88;;;-1.75;100.00
78890;BME280;68279;48.964;14.502;2024-01-30T06:07:09;98606.31;;;-1.73;100.00
78890;BME280;68279;48.964;14.502;2024-01-30T06:09:35;98604.03;;;-1.76;100.00
78890;BME280;68279;48.964;14.502;2024-01-30T06:12:01;98603.22;;;-1.77;100.00
78890;BME280;68279;48.964;14.502;2024-01-30T06:14:26;98595.00;;;-1.82;100.00
78890;BME280;68279;48.964;14.502;2024-01-30T06:16:53;98593.84;;;-1.79;100.00
78890;BME280;68279;48.964;14.502;2024-01-30T06:19:20;98595.50;;;-1.78;100.00
78890;BME280;68279;48.964;14.502;2024-01-30T06:21:46;98594.50;;;-1.77;100.00
78890;BME280;68279;48.964;14.502;2024-01-30T06:24:12;98600.75;;;-1.78;100.00
78890;BME280;68279;48.964;14.502;2024-01-30T06:26:38;98599.28;;;-1.81;100.00
78890;BME280;68279;48.964;14.502;2024-01-30T06:29:03;98611.22;;;-1.78;100.00
78890;BME280;68279;48.964;14.502;2024-01-30T06:31:29;98599.09;;;-1.79;100.00
78890;BME280;68279;48.964;14.502;2024-01-30T06:33:54;98606.97;;;-1.79;100.00
78890;BME280;68279;48.964;14.502;2024-01-30T06:36:20;98602.53;;;-1.79;100.00
78890;BME280;68279;48.964;14.502;2024-01-30T06:38:46;98604.34;;;-1.79;100.00
78890;BME280;68279;48.964;14.502;2024-01-30T06:41:11;98592.56;;;-1.75;100.00
78890;BME280;68279;48.964;14.502;2024-01-30T06:43:37;98603.22;;;-1.77;100.00
78890;BME280;68279;48.964;14.502;2024-01-30T06:46:03;98598.28;;;-1.80;100.00
78890;BME280;68279;48.964;14.502;2024-01-30T06:48:28;98605.50;;;-1.82;100.00
78890;BME280;68279;48.964;14.502;2024-01-30T06:50:54;98608.78;;;-1.80;100.00
78890;BME280;68279;48.964;14.502;2024-01-30T06:53:20;98605.69;;;-1.75;100.00
78890;BME280;68279;48.964;14.502;2024-01-30T06:55:45;98607.78;;;-1.79;100.00
78890;BME280;68279;48.964;14.502;2024-01-30T06:58:11;98604.03;;;-1.84;100.00
78890;BME280;68279;48.964;14.502;2024-01-30T07:00:37;98613.84;;;-1.78;100.00
78890;BME280;68279;48.964;14.502;2024-01-30T07:03:02;98604.50;;;-1.81;100.00
78890;BME280;68279;48.964;14.502;2024-01-30T07:05:28;98616.16;;;-1.75;100.00
78890;BME280;68279;48.964;14.502;2024-01-30T07:07:53;98614.03;;;-1.72;100.00
78890;BME280;68279;48.964;14.502;2024-01-30T07:10:19;98613.38;;;-1.74;100.00
78890;BME280;68279;48.964;14.502;2024-01-30T07:12:46;98614.69;;;-1.69;100.00
78890;BME280;68279;48.964;14.502;2024-01-30T07:15:13;98610.13;;;-1.67;100.00
78890;BME280;68279;48.964;14.502;2024-01-30T07:17:41;98620.59;;;-1.67;100.00
78890;BME280;68279;48.964;14.502;2024-01-30T07:20:07;98616.50;;;-1.62;100.00
78890;BME280;68279;48.964;14.502;2024-01-30T07:22:34;98615.50;;;-1.61;100.00
78890;BME280;68279;48.964;14.502;2024-01-30T07:25:00;98617.00;;;-1.58;100.00
78890;BME280;68279;48.964;14.502;2024-01-30T07:27:27;98617.81;;;-1.58;100.00
78890;BME280;68279;48.964;14.502;2024-01-30T07:29:56;98617.00;;;-1.50;100.00
78890;BME280;68279;48.964;14.502;2024-01-30T07:32:22;98624.19;;;-1.52;100.00
78890;BME280;68279;48.964;14.502;2024-01-30T07:34:49;98628.97;;;-1.56;100.00
78890;BME280;68279;48.964;14.502;2024-01-30T07:37:14;98623.88;;;-1.57;100.00
78890;BME280;68279;48.964;14.502;2024-01-30T07:39:42;98618.31;;;-1.46;100.00
78890;BME280;68279;48.964;14.502;2024-01-30T07:42:08;98619.94;;;-1.45;100.00
78890;BME280;68279;48.964;14.502;2024-01-30T07:44:34;98632.72;;;-1.42;100.00
78890;BME280;68279;48.964;14.502;2024-01-30T07:46:59;98628.63;;;-1.45;100.00
78890;BME280;68279;48.964;14.502;2024-01-30T07:49:25;98635.84;;;-1.47;100.00
78890;BME280;68279;48.964;14.502;2024-01-30T07:51:51;98637.47;;;-1.46;100.00
78890;BME280;68279;48.964;14.502;2024-01-30T07:54:17;98635.03;;;-1.47;100.00
78890;BME280;68279;48.964;14.502;2024-01-30T07:56:43;98636.31;;;-1.43;100.00
78890;BME280;68279;48.964;14.502;2024-01-30T07:59:11;98638.47;;;-1.38;100.00
78890;BME280;68279;48.964;14.502;2024-01-30T08:01:40;98638.13;;;-1.35;100.00
78890;BME280;68279;48.964;14.502;2024-01-30T08:04:06;98642.41;;;-1.26;100.00
78890;BME280;68279;48.964;14.502;2024-01-30T08:06:32;98645.19;;;-1.36;100.00
78890;BME280;68279;48.964;14.502;2024-01-30T08:08:57;98641.56;;;-1.35;100.00
78890;BME280;68279;48.964;14.502;2024-01-30T08:11:25;98644.72;;;-1.31;100.00
78890;BME280;68279;48.964;14.502;2024-01-30T08:13:54;98637.66;;;-1.23;100.00
78890;BME280;68279;48.964;14.502;2024-01-30T08:16:19;98633.88;;;-1.20;100.00
78890;BME280;68279;48.964;14.502;2024-01-30T08:18:45;98643.56;;;-1.21;100.00
78890;BME280;68279;48.964;14.502;2024-01-30T08:21:10;98634.69;;;-1.20;100.00
78890;BME280;68279;48.964;14.502;2024-01-30T08:23:38;98638.94;;;-1.10;100.00
78890;BME280;68279;48.964;14.502;2024-01-30T08:26:05;98634.50;;;-1.02;100.00
78890;BME280;68279;48.964;14.502;2024-01-30T08:28:31;98641.38;;;-1.01;100.00
78890;BME280;68279;48.964;14.502;2024-01-30T08:30:56;98633.03;;;-1.04;100.00
78890;BME280;68279;48.964;14.502;2024-01-30T08:33:22;98641.22;;;-0.99;100.00
78890;BME280;68279;48.964;14.502;2024-01-30T08:35:48;98640.88;;;-0.88;100.00
78890;BME280;68279;48.964;14.502;2024-01-30T08:38:13;98637.28;;;-0.95;100.00
78890;BME280;68279;48.964;14.502;2024-01-30T08:40:39;98637.59;;;-0.90;100.00
78890;BME280;68279;48.964;14.502;2024-01-30T08:43:05;98641.53;;;-0.86;100.00
78890;BME280;68279;48.964;14.502;2024-01-30T08:45:30;98640.84;;;-0.80;100.00
78890;BME280;68279;48.964;14.502;2024-01-30T08:47:56;98641.00;;;-0.81;100.00
78890;BME280;68279;48.964;14.502;2024-01-30T08:50:22;98636.25;;;-0.78;100.00
78890;BME280;68279;48.964;14.502;2024-01-30T08:52:47;98640.53;;;-0.77;100.00
78890;BME280;68279;48.964;14.502;2024-01-30T08:55:13;98631.44;;;-0.58;100.00
78890;BME280;68279;48.964;14.502;2024-01-30T08:57:39;98628.00;;;-0.59;100.00
78890;BME280;68279;48.964;14.502;2024-01-30T09:00:06;98633.38;;;-0.52;100.00
78890;BME280;68279;48.964;14.502;2024-01-30T09:02:34;98634.16;;;-0.35;100.00
78890;BME280;68279;48.964;14.502;2024-01-30T09:05:00;98627.09;;;-0.35;100.00
78890;BME280;68279;48.964;14.502;2024-01-30T09:07:25;98630.22;;;-0.39;100.00
78890;BME280;68279;48.964;14.502;2024-01-30T09:09:51;98632.13;;;-0.25;100.00
78890;BME280;68279;48.964;14.502;2024-01-30T09:12:17;98627.47;;;-0.15;100.00
78890;BME280;68279;48.964;14.502;2024-01-30T09:14:42;98631.09;;;-0.16;100.00
78890;BME280;68279;48.964;14.502;2024-01-30T09:17:08;98624.94;;;0.00;100.00
78890;BME280;68279;48.964;14.502;2024-01-30T09:19:34;98631.94;;;0.08;100.00
78890;BME280;68279;48.964;14.502;2024-01-30T09:21:59;98622.75;;;0.26;100.00
78890;BME280;68279;48.964;14.502;2024-01-30T09:24:26;98629.41;;;0.45;100.00
78890;BME280;68279;48.964;14.502;2024-01-30T09:26:52;98633.84;;;0.45;100.00
78890;BME280;68279;48.964;14.502;2024-01-30T09:29:19;98638.81;;;0.63;100.00
78890;BME280;68279;48.964;14.502;2024-01-30T09:31:46;98636.38;;;0.53;100.00
78890;BME280;68279;48.964;14.502;2024-01-30T09:34:12;98633.22;;;0.35;100.00
78890;BME280;68279;48.964;14.502;2024-01-30T09:36:39;98639.19;;;0.06;100.00
78890;BME280;68279;48.964;14.502;2024-01-30T09:39:05;98645.13;;;-0.01;100.00
78890;BME280;68279;48.964;14.502;2024-01-30T09:41:45;98642.16;;;0.03;100.00
78890;BME280;68279;48.964;14.502;2024-01-30T09:44:13;98645.22;;;0.14;100.00
78890;BME280;68279;48.964;14.502;2024-01-30T09:46:41;98633.56;;;0.09;100.00
78890;BME280;68279;48.964;14.502;2024-01-30T09:49:08;98639.13;;;0.14;100.00
78890;BME280;68279;48.964;14.502;2024-01-30T09:51:34;98648.22;;;0.11;100.00
78890;BME280;68279;48.964;14.502;2024-01-30T09:54:02;98646.41;;;0.12;100.00
78890;BME280;68279;48.964;14.502;2024-01-30T09:56:28;98642.31;;;0.55;100.00
78890;BME280;68279;48.964;14.502;2024-01-30T09:58:54;98639.81;;;0.99;100.00
78890;BME280;68279;48.964;14.502;2024-01-30T10:01:20;98639.41;;;0.88;100.00
78890;BME280;68279;48.964;14.502;2024-01-30T10:03:46;98641.44;;;0.63;100.00
78890;BME280;68279;48.964;14.502;2024-01-30T10:06:11;98642.06;;;0.65;100.00
78890;BME280;68279;48.964;14.502;2024-01-30T10:08:37;98642.56;;;0.45;100.00
78890;BME280;68279;48.964;14.502;2024-01-30T10:11:03;98641.19;;;0.26;100.00
78890;BME280;68279;48.964;14.502;2024-01-30T10:13:29;98635.34;;;0.39;100.00
78890;BME280;68279;48.964;14.502;2024-01-30T10:15:55;98644.41;;;0.60;99.97
78890;BME280;68279;48.964;14.502;2024-01-30T10:18:22;98637.50;;;0.81;99.90
78890;BME280;68279;48.964;14.502;2024-01-30T10:20:48;98627.53;;;0.92;99.35
78890;BME280;68279;48.964;14.502;2024-01-30T10:23:13;98631.00;;;0.69;100.00
78890;BME280;68279;48.964;14.502;2024-01-30T10:25:39;98634.81;;;0.67;99.10
78890;BME280;68279;48.964;14.502;2024-01-30T10:28:05;98626.84;;;0.52;99.26
78890;BME280;68279;48.964;14.502;2024-01-30T10:30:30;98626.91;;;0.67;99.58
78890;BME280;68279;48.964;14.502;2024-01-30T10:32:56;98621.00;;;0.65;98.57
78890;BME280;68279;48.964;14.502;2024-01-30T10:35:22;98620.84;;;1.33;99.78
78890;BME280;68279;48.964;14.502;2024-01-30T10:37:47;98622.16;;;2.10;97.54
78890;BME280;68279;48.964;14.502;2024-01-30T10:40:14;98618.44;;;2.40;92.80
78890;BME280;68279;48.964;14.502;2024-01-30T10:42:45;98614.41;;;2.66;92.70
78890;BME280;68279;48.964;14.502;2024-01-30T10:45:14;98605.47;;;2.45;93.29
78890;BME280;68279;48.964;14.502;2024-01-30T10:47:49;98605.63;;;2.87;91.25
78890;BME280;68279;48.964;14.502;2024-01-30T10:50:15;98605.88;;;2.21;91.24
78890;BME280;68279;48.964;14.502;2024-01-30T10:52:42;98598.19;;;1.68;91.41
78890;BME280;68279;48.964;14.502;2024-01-30T11:12:27;98579.09;;;2.24;92.31
78890;BME280;68279;48.964;14.502;2024-01-30T11:15:06;98588.75;;;2.60;91.28
78890;BME280;68279;48.964;14.502;2024-01-30T11:20:18;98568.03;;;3.19;89.25
78890;BME280;68279;48.964;14.502;2024-01-30T11:22:46;98580.59;;;3.17;85.70
78890;BME280;68279;48.964;14.502;2024-01-30T11:25:16;98575.00;;;3.33;86.08
78890;BME280;68279;48.964;14.502;2024-01-30T11:27:46;98574.13;;;3.20;86.66
78890;BME280;68279;48.964;14.502;2024-01-30T11:30:28;98571.34;;;3.00;87.65
78890;BME280;68279;48.964;14.502;2024-01-30T11:35:38;98560.94;;;2.92;87.93
78890;BME280;68279;48.964;14.502;2024-01-30T11:38:09;98562.06;;;2.82;86.82
78890;BME280;68279;48.964;14.502;2024-01-30T11:40:37;98569.38;;;3.08;86.50
78890;BME280;68279;48.964;14.502;2024-01-30T11:43:04;98553.94;;;3.12;84.08
78890;BME280;68279;48.964;14.502;2024-01-30T11:45:31;98557.31;;;3.34;83.80
78890;BME280;68279;48.964;14.502;2024-01-30T11:47:57;98551.81;;;3.35;85.55
78890;BME280;68279;48.964;14.502;2024-01-30T11:50:25;98551.03;;;3.41;85.77
78890;BME280;68279;48.964;14.502;2024-01-30T11:52:51;98549.84;;;3.51;83.34
78890;BME280;68279;48.964;14.502;2024-01-30T11:55:17;98544.84;;;3.69;83.47
78890;BME280;68279;48.964;14.502;2024-01-30T11:57:43;98539.00;;;3.87;82.66
78890;BME280;68279;48.964;14.502;2024-01-30T12:00:17;98537.72;;;3.63;83.90
78890;BME280;68279;48.964;14.502;2024-01-30T12:02:49;98532.44;;;3.76;82.65
78890;BME280;68279;48.964;14.502;2024-01-30T12:05:15;98529.53;;;3.58;82.41
78890;BME280;68279;48.964;14.502;2024-01-30T12:07:44;98532.78;;;3.47;83.99
78890;BME280;68279;48.964;14.502;2024-01-30T12:10:09;98524.91;;;3.19;83.07
78890;BME280;68279;48.964;14.502;2024-01-30T12:12:35;98518.13;;;3.51;85.34
78890;BME280;68279;48.964;14.502;2024-01-30T12:15:01;98529.44;;;3.31;82.62
78890;BME280;68279;48.964;14.502;2024-01-30T12:17:31;98515.91;;;3.54;81.99
78890;BME280;68279;48.964;14.502;2024-01-30T12:20:08;98517.44;;;4.03;81.38
78890;BME280;68279;48.964;14.502;2024-01-30T12:22:38;98514.84;;;4.36;80.26
78890;BME280;68279;48.964;14.502;2024-01-30T12:25:11;98518.50;;;4.62;79.15
78890;BME280;68279;48.964;14.502;2024-01-30T12:27:38;98515.41;;;4.12;80.11
78890;BME280;68279;48.964;14.502;2024-01-30T12:30:11;98517.38;;;3.63;81.01
78890;BME280;68279;48.964;14.502;2024-01-30T12:32:39;98515.34;;;3.72;80.95
78890;BME280;68279;48.964;14.502;2024-01-30T12:35:10;98507.66;;;3.97;80.47
78890;BME280;68279;48.964;14.502;2024-01-30T12:37:35;98507.69;;;4.23;80.09
78890;BME280;68279;48.964;14.502;2024-01-30T12:40:01;98513.59;;;4.32;79.84
78890;BME280;68279;48.964;14.502;2024-01-30T12:42:27;98505.84;;;4.31;78.77
78890;BME280;68279;48.964;14.502;2024-01-30T12:44:53;98500.78;;;4.42;81.05
78890;BME280;68279;48.964;14.502;2024-01-30T12:47:21;98504.13;;;5.02;80.04
78890;BME280;68279;48.964;14.502;2024-01-30T12:49:47;98493.75;;;5.01;78.16
78890;BME280;68279;48.964;14.502;2024-01-30T12:52:15;98490.50;;;4.86;77.66
78890;BME280;68279;48.964;14.502;2024-01-30T12:54:42;98490.19;;;4.29;77.78
78890;BME280;68279;48.964;14.502;2024-01-30T12:57:07;98492.41;;;4.39;78.23
78890;BME280;68279;48.964;14.502;2024-01-30T12:59:33;98492.22;;;4.27;77.01
78890;BME280;68279;48.964;14.502;2024-01-30T13:02:00;98491.28;;;5.06;75.81
78890;BME280;68279;48.964;14.502;2024-01-30T13:04:27;98487.53;;;5.27;73.94